Ayrshire, Indiana
Current Conditions -  °F | °C
As of 11:55 AM on Friday 31 Oct 2014 (Local Time) from KHNB Reporting Station
Overcast Overcast  
Wind Chill: 35°   Ceiling: 2300
Heat Index: 43°   Visibility: 5mi
Dew Point: 36°   Wind: 15mph
Humidity: 76%   Direction: 360°N
Pressure: 30.07"   Gusts: 25mph
Location:  38.3488°N, 87.2217°W
Report Text: KHNB 311655Z AUTO 36013G22KT 5SM SCT013 BKN023 OVC030 06/02 A3007 RMK AO1
Loading
Personal Weather Stations






























Interactive Weather Map
Tropical Storm Tracking
New forecast layout! Learn more

10-Day Weather Forecast

Advertisements
Track Severe Weather on mobile